Lapis Arrow — C6VH5 — position and weather

sailwx.info

Track history (hours):
 
Tides and Currents Weather Stations Pressure Air Temp Water Temp Dewpoint Dewpoint Depression Visibility Wind Speed Wind Dir Waves Ship Positions

Lapis Arrow

Last reported at 2014-Sep-10 16:15 UTC. Time now 2014-Sep-20 16:05 UTC.
Position N 35°47' W 128°36'.
Warning: this ship's position is 9 days out of date.

Length 176 m; draft 7.3 m.

Type: Cargo ship. MMSI: 308800800.

Date/timePositionNaut miles runAvg speedWind from/ knotsBaromVisibWave heightAir tempDewpointWater temp
2014-Sep-10 16:15N 35°47' W 128°36'1516.5
2014-Sep-10 15:21N 35°41' W 128°19'1416.8
2014-Sep-10 14:31N 35°35' W 128°04'1816.9
2014-Sep-10 13:29N 35°27' W 127°44'1516.7
2014-Sep-10 12:33N 35°21' W 127°27'1716.8
2014-Sep-10 11:33N 35°14' W 127°09'1716.6
2014-Sep-10 10:33N 35°07' W 126°50'1616.5
2014-Sep-10 09:33N 34°60' W 126°32'1716.5
2014-Sep-10 08:33N 34°53' W 126°14'1616.5
2014-Sep-10 07:33N 34°46' W 125°56'1514.9
2014-Sep-10 06:34N 34°39' W 125°39'1413.6
2014-Sep-10 05:33N 34°34' W 125°24'1413.6
2014-Sep-10 04:33N 34°31' W 125°08'1414.0
2014-Sep-10 03:32N 34°29' W 124°51'1414.1
2014-Sep-10 02:33N 34°29' W 124°34'1414.0
2014-Sep-10 01:33N 34°29' W 124°17'1413.7
2014-Sep-10 00:33N 34°29' W 124°00'1413.9
2014-Sep-09 23:33N 34°29' W 123°43'1413.6
2014-Sep-09 22:33N 34°28' W 123°27'1413.8
2014-Sep-09 21:33N 34°28' W 123°10'1414.0
2014-Sep-09 20:33N 34°28' W 122°53'1413.5
2014-Sep-09 19:33N 34°27' W 122°37'1414.2
2014-Sep-09 18:33N 34°27' W 122°20'1414.0
2014-Sep-09 17:34N 34°27' W 122°03'1414.2
2014-Sep-09 16:34N 34°26' W 121°46'1913.9
2014-Sep-09 15:13N 34°26' W 121°23'913.9
2014-Sep-09 14:33N 34°26' W 121°12'1414.0
2014-Sep-09 13:33N 34°26' W 120°55'1413.8
2014-Sep-09 12:33N 34°23' W 120°38'1414.2
2014-Sep-09 11:33N 34°19' W 120°22'1515.1
2014-Sep-09 10:33N 34°15' W 120°04'1413.7
2014-Sep-09 09:33N 34°12' W 119°48'1413.6
2014-Sep-09 08:34N 34°08' W 119°32'1413.8
2014-Sep-09 07:34N 34°05' W 119°16'5 4.7
2014-Sep-09 06:30N 34°09' W 119°12'0 0.0
2014-Sep-09 05:15N 34°09' W 119°12'0 0.0
2014-Sep-09 04:24N 34°09' W 119°12'0 0.0
2014-Sep-09 03:33N 34°09' W 119°12'0 0.0
2014-Sep-09 02:32N 34°09' W 119°12'0 0.0
2014-Sep-08 23:33N 34°09' W 119°12'14 7.0
2014-Sep-08 21:33N 33°56' W 119°06'1413.9
2014-Sep-08 20:33N 33°44' W 119°14'1312.7
2014-Sep-08 19:33N 33°31' W 119°14'1514.9
2014-Sep-08 18:33N 33°16' W 119°13'1414.5
2014-Sep-08 17:33N 33°02' W 119°07'1514.7
2014-Sep-08 16:32N 32°48' W 119°02'1414.7
2014-Sep-08 15:33N 32°36' W 118°54'1514.8
2014-Sep-08 14:33N 32°23' W 118°45'1515.0
2014-Sep-08 13:33N 32°10' W 118°36'1515.4
2014-Sep-08 12:33N 31°56' W 118°27'1515.4
2014-Sep-08 11:33N 31°43' W 118°18'1515.3
2014-Sep-08 10:33N 31°30' W 118°09'1515.0
2014-Sep-08 09:33N 31°17' W 118°00'1514.8
2014-Sep-08 08:33N 31°04' W 117°51'1514.9
2014-Sep-08 07:33N 30°51' W 117°43'  
Track history (hours):
 
Tides and Currents Weather Stations Pressure Air Temp Water Temp Dewpoint Dewpoint Depression Visibility Wind Speed Wind Dir Waves Ship Positions

Lapis Arrow

Last reported at 2014-Sep-10 16:15 UTC. Time now 2014-Sep-20 16:05 UTC.
Position N 35°47' W 128°36'.
Warning: this ship's position is 9 days out of date.

Length 176 m; draft 7.3 m.

Type: Cargo ship. MMSI: 308800800.

Date/timePositionNaut miles runAvg speedWind from/ knotsBaromVisibWave heightAir tempDewpointWater temp
2014-Sep-10 16:15N 35°47' W 128°36'1516.5
2014-Sep-10 15:21N 35°41' W 128°19'1416.8
2014-Sep-10 14:31N 35°35' W 128°04'1816.9
2014-Sep-10 13:29N 35°27' W 127°44'1516.7
2014-Sep-10 12:33N 35°21' W 127°27'1716.8
2014-Sep-10 11:33N 35°14' W 127°09'1716.6
2014-Sep-10 10:33N 35°07' W 126°50'1616.5
2014-Sep-10 09:33N 34°60' W 126°32'1716.5
2014-Sep-10 08:33N 34°53' W 126°14'1616.5
2014-Sep-10 07:33N 34°46' W 125°56'1514.9
2014-Sep-10 06:34N 34°39' W 125°39'1413.6
2014-Sep-10 05:33N 34°34' W 125°24'1413.6
2014-Sep-10 04:33N 34°31' W 125°08'1414.0
2014-Sep-10 03:32N 34°29' W 124°51'1414.1
2014-Sep-10 02:33N 34°29' W 124°34'1414.0
2014-Sep-10 01:33N 34°29' W 124°17'1413.7
2014-Sep-10 00:33N 34°29' W 124°00'1413.9
2014-Sep-09 23:33N 34°29' W 123°43'1413.6
2014-Sep-09 22:33N 34°28' W 123°27'1413.8
2014-Sep-09 21:33N 34°28' W 123°10'1414.0
2014-Sep-09 20:33N 34°28' W 122°53'1413.5
2014-Sep-09 19:33N 34°27' W 122°37'1414.2
2014-Sep-09 18:33N 34°27' W 122°20'1414.0
2014-Sep-09 17:34N 34°27' W 122°03'1414.2
2014-Sep-09 16:34N 34°26' W 121°46'1913.9
2014-Sep-09 15:13N 34°26' W 121°23'913.9
2014-Sep-09 14:33N 34°26' W 121°12'1414.0
2014-Sep-09 13:33N 34°26' W 120°55'1413.8
2014-Sep-09 12:33N 34°23' W 120°38'1414.2
2014-Sep-09 11:33N 34°19' W 120°22'1515.1
2014-Sep-09 10:33N 34°15' W 120°04'1413.7
2014-Sep-09 09:33N 34°12' W 119°48'1413.6
2014-Sep-09 08:34N 34°08' W 119°32'1413.8
2014-Sep-09 07:34N 34°05' W 119°16'5 4.7
2014-Sep-09 06:30N 34°09' W 119°12'0 0.0
2014-Sep-09 05:15N 34°09' W 119°12'0 0.0
2014-Sep-09 04:24N 34°09' W 119°12'0 0.0
2014-Sep-09 03:33N 34°09' W 119°12'0 0.0
2014-Sep-09 02:32N 34°09' W 119°12'0 0.0
2014-Sep-08 23:33N 34°09' W 119°12'14 7.0
2014-Sep-08 21:33N 33°56' W 119°06'1413.9
2014-Sep-08 20:33N 33°44' W 119°14'1312.7
2014-Sep-08 19:33N 33°31' W 119°14'1514.9
2014-Sep-08 18:33N 33°16' W 119°13'1414.5
2014-Sep-08 17:33N 33°02' W 119°07'1514.7
2014-Sep-08 16:32N 32°48' W 119°02'1414.7
2014-Sep-08 15:33N 32°36' W 118°54'1514.8
2014-Sep-08 14:33N 32°23' W 118°45'1515.0
2014-Sep-08 13:33N 32°10' W 118°36'1515.4
2014-Sep-08 12:33N 31°56' W 118°27'1515.4
2014-Sep-08 11:33N 31°43' W 118°18'1515.3
2014-Sep-08 10:33N 31°30' W 118°09'1515.0
2014-Sep-08 09:33N 31°17' W 118°00'1514.8
2014-Sep-08 08:33N 31°04' W 117°51'1514.9
2014-Sep-08 07:33N 30°51' W 117°43'  

Dump ship's entire track history